Language selection

Weather shortcuts

Haro Strait: Past 24 Hour Conditions

 

La Perouse Bank - 46206

05:00 AM PDT 25 May 2024Buoy position: 48.83N 126.0W
Disclaimer

This table is a summary of hourly weather conditions for the past 24 hours.
Please note that these observations might not always be representative of weather conditions over their associated marine area.

Date / Time
(PDT)
Wind(knots) Wave height(m) Wave period(s) Pressure(kPa) Air tempC) Water tempC)
25 May 2024
5:00 NW 24 gusts 29 2.52 9.1 101.0 10 10
4:00 NW 21 gusts 26 2.49 9.1 100.9 10 10
3:00 NW 22 gusts 28 2.63 6.9 100.9 10 10
2:00 NW 23 gusts 28 2.84 8.7 100.9 10 10
1:00 NW 22 gusts 27 2.76 6.5 101.0 10 10
0:00 NW 23 gusts 28 2.65 7.1 101.0 10 10
24 May 2024
23:00 NW 23 gusts 28 2.55 9.1 101.0 10 10
22:00 NW 22 gusts 26 2.60 9.1 101.0 10 10
21:00 NW 22 gusts 26 2.76 8.7 101.0 10 10
20:00 NW 23 gusts 28 2.61 8.3 101.0 10 10
19:00 NW 20 gusts 27 2.35 8.7 101.0 10 10
18:00 NW 19 gusts 24 1.91 9.1 101.0 11 11
17:00 NW 15 gusts 19 1.77 8.7 101.1 11 11
16:00 WNW 12 gusts 15 1.68 8.7 101.1 10 11
15:00 WNW 12 gusts 14 1.48 7.7 101.1 10 11
14:00 NNW 3 gusts 5 1.53 6.9 101.1 10 11
13:00 ENE 6 gusts 8 1.38 6.9 101.1 10 11
12:00 E 11 gusts 13 0.99 15.4 101.1 9 10
11:00 E 14 gusts 16 1.00 15.4 101.1 9 10
10:00 E 15 gusts 18 1.00 14.3 101.1 9 10
9:00 ESE 17 gusts 21 1.01 15.4 101.1 9 10
8:00 ESE 16 gusts 20 0.97 3.3 101.2 9 10
7:00 ESE 15 gusts 17 0.86 15.4 101.2 9 10
6:00 ESE 14 gusts 17 0.84 15.4 101.2 9 10
5:00 ESE 15 gusts 18 0.77 15.4 101.3 9 10

Zoom-in to make a selection

Map of Pacific - Georgia Basin marine weather areas Sentry Shoal - 46131 Halibut Bank - 46146 La Perouse Bank - 46206 Georgia Strait - 46303 English Bay – 46304 Discovery Island Esquimalt Harbour Kelp Reefs Malahat Race Rocks Lightstation Saturna Island Sheringham Point University of Victoria Victoria Gonzales Victoria Int'l Airport Ballenas Islands Campbell River Airport Comox Airport Entrance Island Fanny Island Nanaimo Airport Sisters Islets Estevan Point Port Alberni Tofino Airport Grief Point Howe Sound - Pam Rocks Powell River Airport Sechelt Squamish Airport Point Atkinson Sand Heads Lightstation Tsawwassen Ferry Terminal Vancouver Int'l Airport Vancouver Harbour West Vancouver
Legend:
buoy Buoy
land station Land Station

Pacific - Georgia Basin Area

Another Region

Features

New Predicting and Alerting Coastal Flooding Program

Find out about coastal flooding coverage, forecasts and warnings in your region

Date modified: